createdAt,value
2023-03-22T00:00:08.443Z,1011.68
2023-03-22T00:01:08.579Z,1011.64
2023-03-22T00:02:08.767Z,1011.66
2023-03-22T00:03:08.929Z,1011.61
2023-03-22T00:04:09.251Z,1011.65
2023-03-22T00:05:09.299Z,1011.65
2023-03-22T00:06:09.462Z,1011.64
2023-03-22T00:07:09.631Z,1011.66
2023-03-22T00:08:09.780Z,1011.64
2023-03-22T00:09:09.990Z,1011.65
2023-03-22T00:10:10.121Z,1011.64
2023-03-22T00:11:10.286Z,1011.60
2023-03-22T00:12:10.452Z,1011.59
2023-03-22T00:13:10.618Z,1011.57
2023-03-22T00:14:10.807Z,1011.57
2023-03-22T00:15:10.961Z,1011.56
2023-03-22T00:16:11.232Z,1011.59
2023-03-22T00:17:11.326Z,1011.56
2023-03-22T00:18:11.512Z,1011.56
2023-03-22T00:19:11.732Z,1011.59
2023-03-22T00:20:11.883Z,1011.54
2023-03-22T00:21:12.106Z,1011.52
2023-03-22T00:22:12.238Z,1011.50
2023-03-22T00:23:12.425Z,1011.49
2023-03-22T00:24:12.621Z,1011.52
2023-03-22T00:25:12.753Z,1011.50
2023-03-22T00:26:12.937Z,1011.49
2023-03-22T00:27:13.135Z,1011.46
2023-03-22T00:28:13.299Z,1011.48
2023-03-22T00:29:13.477Z,1011.53
2023-03-22T00:30:13.620Z,1011.49
2023-03-22T00:31:13.840Z,1011.47
2023-03-22T00:32:13.974Z,1011.45
2023-03-22T00:33:14.161Z,1011.43
2023-03-22T00:34:14.372Z,1011.42
2023-03-22T00:35:14.513Z,1011.44
2023-03-22T00:36:14.695Z,1011.45
2023-03-22T00:37:14.872Z,1011.44
2023-03-22T00:38:15.064Z,1011.44
2023-03-22T00:39:15.236Z,1011.44
2023-03-22T00:40:17.852Z,1011.44
2023-03-22T00:41:15.608Z,1011.38
2023-03-22T00:42:15.736Z,1011.37
2023-03-22T00:43:16.170Z,1011.38
2023-03-22T00:44:16.088Z,1011.33
2023-03-22T00:45:16.267Z,1011.34
2023-03-22T00:46:16.499Z,1011.32
2023-03-22T00:47:16.613Z,1011.34
2023-03-22T00:48:16.823Z,1011.30
2023-03-22T00:49:16.918Z,1011.35
2023-03-22T00:50:17.090Z,1011.31
2023-03-22T00:51:17.231Z,1011.36
2023-03-22T00:52:17.455Z,1011.35
2023-03-22T00:53:17.615Z,1011.36
2023-03-22T00:54:17.796Z,1011.30
2023-03-22T00:55:17.945Z,1011.35
2023-03-22T00:56:18.101Z,1011.31
2023-03-22T00:57:18.297Z,1011.30
2023-03-22T00:58:18.450Z,1011.32
2023-03-22T00:59:18.673Z,1011.25
2023-03-22T01:00:18.821Z,1011.33
2023-03-22T01:01:19.055Z,1011.28
2023-03-22T01:02:19.173Z,1011.22
2023-03-22T01:03:19.415Z,1011.29
2023-03-22T01:04:19.544Z,1011.25
2023-03-22T01:05:19.682Z,1011.28
2023-03-22T01:06:19.859Z,1011.29
2023-03-22T01:07:20.062Z,1011.26
2023-03-22T01:08:20.212Z,1011.29
2023-03-22T01:09:20.404Z,1011.23
2023-03-22T01:10:20.577Z,1011.21
2023-03-22T01:11:20.741Z,1011.23
2023-03-22T01:12:20.895Z,1011.21
2023-03-22T01:13:21.083Z,1011.22
2023-03-22T01:14:21.285Z,1011.21
2023-03-22T01:15:21.427Z,1011.15
2023-03-22T01:16:21.685Z,1011.13
2023-03-22T01:17:21.779Z,1011.08
2023-03-22T01:18:21.934Z,1011.06
2023-03-22T01:19:22.104Z,1011.02
2023-03-22T01:20:22.273Z,1011.06
2023-03-22T01:21:22.444Z,1011.08
2023-03-22T01:22:22.658Z,1011.08
2023-03-22T01:23:22.794Z,1011.07
2023-03-22T01:24:22.964Z,1011.08
2023-03-22T01:25:23.170Z,1011.05
2023-03-22T01:26:23.308Z,1011.08
2023-03-22T01:27:23.497Z,1011.07
2023-03-22T01:28:26.435Z,1011.11
2023-03-22T01:29:23.809Z,1011.03
2023-03-22T01:30:23.967Z,1011.05
2023-03-22T01:31:24.207Z,1011.01
2023-03-22T01:32:24.331Z,1011.01
2023-03-22T01:33:24.500Z,1011.03
2023-03-22T01:34:24.631Z,1011.03
2023-03-22T01:35:24.863Z,1011.01
2023-03-22T01:36:24.974Z,1011.03
2023-03-22T01:37:25.178Z,1011.07
2023-03-22T01:38:25.318Z,1011.07
2023-03-22T01:39:25.512Z,1011.07
2023-03-22T01:40:25.673Z,1011.01
2023-03-22T01:41:25.915Z,1011.01
2023-03-22T01:42:26.037Z,1011.00
2023-03-22T01:43:26.192Z,1010.95
2023-03-22T01:44:26.340Z,1010.94
2023-03-22T01:45:26.510Z,1010.94
2023-03-22T01:46:26.684Z,1010.94
2023-03-22T01:47:26.868Z,1010.93
2023-03-22T01:48:27.021Z,1010.92
2023-03-22T01:49:27.220Z,1010.95
2023-03-22T01:50:27.378Z,1010.86
2023-03-22T01:51:27.546Z,1010.93
2023-03-22T01:52:27.727Z,1010.91
2023-03-22T01:53:27.879Z,1010.87
2023-03-22T01:54:28.066Z,1010.88
2023-03-22T01:55:28.218Z,1010.86
2023-03-22T01:56:28.372Z,1010.85
2023-03-22T01:57:28.568Z,1010.86
2023-03-22T01:58:28.696Z,1010.83
2023-03-22T01:59:28.857Z,1010.85
2023-03-22T02:00:29.038Z,1010.84
2023-03-22T02:01:29.291Z,1010.78
2023-03-22T02:02:29.422Z,1010.80
2023-03-22T02:03:29.576Z,1010.81
2023-03-22T02:04:29.757Z,1010.83
2023-03-22T02:05:29.920Z,1010.78
2023-03-22T02:06:30.065Z,1010.78
2023-03-22T02:07:30.264Z,1010.76
2023-03-22T02:08:30.420Z,1010.79
2023-03-22T02:09:30.592Z,1010.75
2023-03-22T02:10:30.744Z,1010.75
2023-03-22T02:11:30.902Z,1010.76
2023-03-22T02:12:31.078Z,1010.75
2023-03-22T02:13:31.246Z,1010.71
2023-03-22T02:14:31.424Z,1010.77
2023-03-22T02:15:31.641Z,1010.76
2023-03-22T02:16:31.832Z,1010.76
2023-03-22T02:17:31.993Z,1010.72
2023-03-22T02:18:32.140Z,1010.71
2023-03-22T02:19:32.310Z,1010.69
2023-03-22T02:20:32.467Z,1010.68
2023-03-22T02:21:32.654Z,1010.68
2023-03-22T02:22:32.842Z,1010.61
2023-03-22T02:23:32.989Z,1010.60
2023-03-22T02:24:33.182Z,1010.62
2023-03-22T02:25:33.326Z,1010.64
2023-03-22T02:26:33.531Z,1010.64
2023-03-22T02:27:33.691Z,1010.66
2023-03-22T02:28:33.861Z,1010.63
2023-03-22T02:29:34.038Z,1010.63
2023-03-22T02:30:34.205Z,1010.64
2023-03-22T02:31:34.405Z,1010.65
2023-03-22T02:32:34.523Z,1010.67
2023-03-22T02:33:34.703Z,1010.67
2023-03-22T02:34:34.900Z,1010.65
2023-03-22T02:35:35.064Z,1010.66
2023-03-22T02:36:35.267Z,1010.67
2023-03-22T02:37:35.401Z,1010.70
2023-03-22T02:38:35.576Z,1010.69
2023-03-22T02:39:35.720Z,1010.68
2023-03-22T02:40:35.963Z,1010.71
2023-03-22T02:41:36.073Z,1010.72
2023-03-22T02:42:36.218Z,1010.70
2023-03-22T02:43:36.367Z,1010.69
2023-03-22T02:44:36.542Z,1010.72
2023-03-22T02:45:36.689Z,1010.70
2023-03-22T02:46:36.933Z,1010.70
2023-03-22T02:47:37.049Z,1010.66
2023-03-22T02:48:37.223Z,1010.70
2023-03-22T02:49:37.387Z,1010.66
2023-03-22T02:50:37.927Z,1010.70
2023-03-22T02:51:37.718Z,1010.65
2023-03-22T02:52:37.887Z,1010.64
2023-03-22T02:53:38.046Z,1010.61
2023-03-22T02:54:38.239Z,1010.56
2023-03-22T02:55:38.380Z,1010.59
2023-03-22T02:56:38.557Z,1010.62
2023-03-22T02:57:38.708Z,1010.62
2023-03-22T02:58:38.911Z,1010.59
2023-03-22T02:59:39.059Z,1010.58
2023-03-22T03:00:39.593Z,1010.60
2023-03-22T03:01:39.443Z,1010.64
2023-03-22T03:02:39.592Z,1010.68
2023-03-22T03:03:39.785Z,1010.62
2023-03-22T03:04:39.944Z,1010.64
2023-03-22T03:05:40.102Z,1010.62
2023-03-22T03:06:40.281Z,1010.67
2023-03-22T03:07:40.469Z,1010.66
2023-03-22T03:08:40.621Z,1010.64
2023-03-22T03:09:40.817Z,1010.69
2023-03-22T03:10:41.488Z,1010.72
2023-03-22T03:11:41.218Z,1010.74
2023-03-22T03:12:41.331Z,1010.75
2023-03-22T03:13:41.499Z,1010.69
2023-03-22T03:14:41.682Z,1010.67
2023-03-22T03:15:41.848Z,1010.70
2023-03-22T03:16:42.067Z,1010.64
2023-03-22T03:17:42.190Z,1010.62
2023-03-22T03:18:42.392Z,1010.59
2023-03-22T03:19:42.518Z,1010.56
2023-03-22T03:20:42.729Z,1010.53
2023-03-22T03:21:42.890Z,1010.53
2023-03-22T03:22:43.059Z,1010.57
2023-03-22T03:23:43.216Z,1010.57
2023-03-22T03:24:43.370Z,1010.59
2023-03-22T03:25:43.682Z,1010.59
2023-03-22T03:26:43.720Z,1010.62
2023-03-22T03:27:43.892Z,1010.58
2023-03-22T03:28:44.056Z,1010.56
2023-03-22T03:29:44.212Z,1010.53
2023-03-22T03:30:44.405Z,1010.56
2023-03-22T03:31:44.647Z,1010.49
2023-03-22T03:32:44.734Z,1010.52
2023-03-22T03:33:44.899Z,1010.55
2023-03-22T03:34:45.095Z,1010.55
2023-03-22T03:35:45.286Z,1010.55
2023-03-22T03:36:45.427Z,1010.55
2023-03-22T03:37:45.573Z,1010.59
2023-03-22T03:38:45.762Z,1010.56
2023-03-22T03:39:45.914Z,1010.61
2023-03-22T03:40:46.100Z,1010.54
2023-03-22T03:41:46.253Z,1010.55
2023-03-22T03:42:46.448Z,1010.56
2023-03-22T03:43:46.613Z,1010.59
2023-03-22T03:44:46.803Z,1010.61
2023-03-22T03:45:47.007Z,1010.62
2023-03-22T03:46:47.132Z,1010.58
2023-03-22T03:47:47.399Z,1010.56
2023-03-22T03:48:47.460Z,1010.52
2023-03-22T03:49:47.635Z,1010.54
2023-03-22T03:50:47.806Z,1010.54
2023-03-22T03:51:47.960Z,1010.54
2023-03-22T03:52:48.110Z,1010.54
2023-03-22T03:53:48.277Z,1010.59
2023-03-22T03:54:48.447Z,1010.59
2023-03-22T03:55:48.636Z,1010.59
2023-03-22T03:56:48.786Z,1010.58
2023-03-22T03:57:48.947Z,1010.63
2023-03-22T03:58:49.122Z,1010.63
2023-03-22T03:59:49.272Z,1010.67
2023-03-22T04:00:49.444Z,1010.61
2023-03-22T04:01:49.606Z,1010.60
2023-03-22T04:02:49.804Z,1010.59
2023-03-22T04:03:49.950Z,1010.60
2023-03-22T04:04:50.257Z,1010.61
2023-03-22T04:05:50.261Z,1010.61
2023-03-22T04:06:50.464Z,1010.63
2023-03-22T04:07:50.623Z,1010.61
2023-03-22T04:08:50.804Z,1010.62
2023-03-22T04:09:50.972Z,1010.59
2023-03-22T04:10:51.152Z,1010.54
2023-03-22T04:11:51.307Z,1010.56
2023-03-22T04:12:51.463Z,1010.50
2023-03-22T04:13:51.625Z,1010.52
2023-03-22T04:14:51.794Z,1010.54
2023-03-22T04:15:51.954Z,1010.51
2023-03-22T04:16:52.165Z,1010.53
2023-03-22T04:17:52.305Z,1010.55
2023-03-22T04:18:52.478Z,1010.53
2023-03-22T04:19:52.635Z,1010.53
2023-03-22T04:20:52.799Z,1010.55
2023-03-22T04:21:52.980Z,1010.56
2023-03-22T04:22:53.128Z,1010.59
2023-03-22T04:23:53.286Z,1010.58
2023-03-22T04:24:53.452Z,1010.59
2023-03-22T04:25:53.599Z,1010.58
2023-03-22T04:26:53.760Z,1010.58
2023-03-22T04:27:53.922Z,1010.58
2023-03-22T04:28:54.138Z,1010.62
2023-03-22T04:29:54.287Z,1010.60
2023-03-22T04:30:54.480Z,1010.57
2023-03-22T04:31:54.609Z,1010.58
2023-03-22T04:32:54.829Z,1010.54
2023-03-22T04:33:55.005Z,1010.54
2023-03-22T04:34:55.149Z,1010.55
2023-03-22T04:35:55.365Z,1010.51
2023-03-22T04:36:55.488Z,1010.52
2023-03-22T04:37:55.643Z,1010.49
2023-03-22T04:38:55.858Z,1010.50
2023-03-22T04:39:55.982Z,1010.52
2023-03-22T04:40:56.151Z,1010.51
2023-03-22T04:41:56.302Z,1010.50
2023-03-22T04:42:56.464Z,1010.47
2023-03-22T04:43:56.683Z,1010.45
2023-03-22T04:44:56.844Z,1010.41
2023-03-22T04:45:57.010Z,1010.44
2023-03-22T04:46:57.159Z,1010.42
2023-03-22T04:47:57.394Z,1010.43
2023-03-22T04:48:57.539Z,1010.38
2023-03-22T04:49:57.698Z,1010.38
2023-03-22T04:50:57.856Z,1010.38
2023-03-22T04:51:58.016Z,1010.37
2023-03-22T04:52:58.210Z,1010.39
2023-03-22T04:53:58.373Z,1010.35
2023-03-22T04:54:58.545Z,1010.35
2023-03-22T04:55:58.705Z,1010.36
2023-03-22T04:56:58.886Z,1010.33
2023-03-22T04:57:59.080Z,1010.34
2023-03-22T04:58:59.280Z,1010.31
2023-03-22T04:59:59.428Z,1010.28
2023-03-22T05:00:59.587Z,1010.28
2023-03-22T05:01:59.787Z,1010.27
2023-03-22T05:02:59.961Z,1010.30
2023-03-22T05:04:00.125Z,1010.31
2023-03-22T05:05:00.274Z,1010.29
2023-03-22T05:06:00.445Z,1010.27
2023-03-22T05:07:00.606Z,1010.28
2023-03-22T05:08:00.775Z,1010.27
2023-03-22T05:09:00.980Z,1010.24
2023-03-22T05:10:01.160Z,1010.21
2023-03-22T05:11:01.322Z,1010.17
2023-03-22T05:12:01.496Z,1010.20
2023-03-22T05:13:01.715Z,1010.20
2023-03-22T05:14:01.874Z,1010.19
2023-03-22T05:15:02.046Z,1010.18
2023-03-22T05:16:02.264Z,1010.24
2023-03-22T05:17:02.411Z,1010.20
2023-03-22T05:18:02.581Z,1010.17
2023-03-22T05:19:02.721Z,1010.22
2023-03-22T05:20:02.899Z,1010.21
2023-03-22T05:21:03.128Z,1010.21
2023-03-22T05:22:03.297Z,1010.19
2023-03-22T05:23:03.467Z,1010.25
2023-03-22T05:24:03.658Z,1010.20
2023-03-22T05:25:03.794Z,1010.19
2023-03-22T05:26:03.963Z,1010.21
2023-03-22T05:27:04.168Z,1010.24
2023-03-22T05:28:04.304Z,1010.23
2023-03-22T05:29:04.489Z,1010.23
2023-03-22T05:30:04.675Z,1010.22
2023-03-22T05:31:04.908Z,1010.23
2023-03-22T05:32:05.014Z,1010.28
2023-03-22T05:33:05.211Z,1010.22
2023-03-22T05:34:05.376Z,1010.23
2023-03-22T05:35:05.555Z,1010.22
2023-03-22T05:36:05.739Z,1010.16
2023-03-22T05:37:05.929Z,1010.23
2023-03-22T05:38:06.076Z,1010.17
2023-03-22T05:39:06.262Z,1010.26
2023-03-22T05:40:06.478Z,1010.24
2023-03-22T05:41:06.650Z,1010.19
2023-03-22T05:42:06.805Z,1010.27
2023-03-22T05:43:06.976Z,1010.29
2023-03-22T05:44:07.162Z,1010.26
2023-03-22T05:45:07.321Z,1010.27
2023-03-22T05:46:07.526Z,1010.22
2023-03-22T05:47:07.714Z,1010.21
2023-03-22T05:48:07.878Z,1010.23
2023-03-22T05:49:08.044Z,1010.15
2023-03-22T05:50:08.199Z,1010.21
2023-03-22T05:51:08.420Z,1010.17
2023-03-22T05:52:08.563Z,1010.16
2023-03-22T05:53:08.726Z,1010.18
2023-03-22T05:54:08.895Z,1010.18
2023-03-22T05:55:09.076Z,1010.17
2023-03-22T05:56:09.359Z,1010.15
2023-03-22T05:57:09.463Z,1010.12
2023-03-22T05:58:09.611Z,1010.09
2023-03-22T05:59:09.804Z,1010.07
2023-03-22T06:00:09.983Z,1010.10
2023-03-22T06:01:10.176Z,1010.08
2023-03-22T06:02:10.378Z,1010.04
2023-03-22T06:03:10.523Z,1010.03
2023-03-22T06:04:10.652Z,1010.02
2023-03-22T06:05:10.841Z,1010.07
2023-03-22T06:06:10.983Z,1010.03
2023-03-22T06:07:11.160Z,1010.02
2023-03-22T06:08:11.331Z,1010.04
2023-03-22T06:09:17.236Z,1010.06
2023-03-22T06:10:12.706Z,1010.06
2023-03-22T06:11:11.883Z,1010.08
2023-03-22T06:12:12.051Z,1010.08
2023-03-22T06:13:12.315Z,1010.07
2023-03-22T06:14:12.455Z,1010.07
2023-03-22T06:15:12.609Z,1010.11
2023-03-22T06:16:12.777Z,1010.07
2023-03-22T06:17:12.943Z,1010.09
2023-03-22T06:18:13.116Z,1010.11
2023-03-22T06:19:13.296Z,1010.12
2023-03-22T06:20:13.485Z,1010.11
2023-03-22T06:21:13.647Z,1010.14
2023-03-22T06:22:13.815Z,1010.13
2023-03-22T06:23:14.006Z,1010.12
2023-03-22T06:24:14.190Z,1010.14
2023-03-22T06:25:14.369Z,1010.14
2023-03-22T06:26:14.539Z,1010.17
2023-03-22T06:27:14.728Z,1010.16
2023-03-22T06:28:14.890Z,1010.17
2023-03-22T06:29:15.104Z,1010.18
2023-03-22T06:30:15.259Z,1010.17
2023-03-22T06:31:15.497Z,1010.15
2023-03-22T06:32:15.627Z,1010.17
2023-03-22T06:33:15.795Z,1010.18
2023-03-22T06:34:16.002Z,1010.19
2023-03-22T06:35:16.165Z,1010.17
2023-03-22T06:36:16.359Z,1010.18
2023-03-22T06:37:16.508Z,1010.20
2023-03-22T06:38:16.703Z,1010.18
2023-03-22T06:39:16.883Z,1010.18
2023-03-22T06:40:17.080Z,1010.19
2023-03-22T06:41:17.244Z,1010.22
2023-03-22T06:42:17.433Z,1010.20
2023-03-22T06:43:17.599Z,1010.19
2023-03-22T06:44:17.784Z,1010.24
2023-03-22T06:45:17.963Z,1010.23
2023-03-22T06:46:18.222Z,1010.24
2023-03-22T06:47:18.310Z,1010.23
2023-03-22T06:48:18.595Z,1010.26
2023-03-22T06:49:18.688Z,1010.25
2023-03-22T06:50:18.875Z,1010.21
2023-03-22T06:51:19.013Z,1010.25
2023-03-22T06:52:19.196Z,1010.20
2023-03-22T06:53:19.351Z,1010.24
2023-03-22T06:54:19.545Z,1010.25
2023-03-22T06:55:19.718Z,1010.26
2023-03-22T06:56:19.913Z,1010.29
2023-03-22T06:57:20.072Z,1010.30
2023-03-22T06:58:20.254Z,1010.23
2023-03-22T06:59:20.433Z,1010.22
2023-03-22T07:00:20.625Z,1010.16
2023-03-22T07:01:20.792Z,1010.19
2023-03-22T07:02:20.942Z,1010.25
2023-03-22T07:03:21.115Z,1010.25
2023-03-22T07:04:21.347Z,1010.25
2023-03-22T07:05:21.493Z,1010.32
2023-03-22T07:06:21.672Z,1010.30
2023-03-22T07:07:21.872Z,1010.30
2023-03-22T07:08:22.018Z,1010.31
2023-03-22T07:09:22.218Z,1010.26
2023-03-22T07:10:22.374Z,1010.28
2023-03-22T07:11:22.538Z,1010.27
2023-03-22T07:12:22.725Z,1010.33
2023-03-22T07:13:22.877Z,1010.30
2023-03-22T07:14:23.078Z,1010.29
2023-03-22T07:15:23.250Z,1010.26
2023-03-22T07:16:23.508Z,1010.28
2023-03-22T07:17:23.580Z,1010.24
2023-03-22T07:18:23.735Z,1010.22
2023-03-22T07:19:23.912Z,1010.20
2023-03-22T07:20:24.063Z,1010.21
2023-03-22T07:21:24.251Z,1010.24
2023-03-22T07:22:24.463Z,1010.19
2023-03-22T07:23:24.635Z,1010.22
2023-03-22T07:24:24.792Z,1010.23
2023-03-22T07:25:24.956Z,1010.24
2023-03-22T07:26:25.113Z,1010.26
2023-03-22T07:27:25.340Z,1010.27
2023-03-22T07:28:25.504Z,1010.25
2023-03-22T07:29:25.692Z,1010.26
2023-03-22T07:30:25.848Z,1010.16
2023-03-22T07:31:26.022Z,1010.22
2023-03-22T07:32:26.233Z,1010.23
2023-03-22T07:33:26.366Z,1010.19
2023-03-22T07:34:26.544Z,1010.15
2023-03-22T07:35:27.069Z,1010.13
2023-03-22T07:36:26.868Z,1010.17
2023-03-22T07:37:27.027Z,1010.17
2023-03-22T07:38:27.198Z,1010.06
2023-03-22T07:39:27.388Z,1010.09
2023-03-22T07:40:27.543Z,1010.02
2023-03-22T07:41:27.701Z,1010.02
2023-03-22T07:42:27.895Z,1010.07
2023-03-22T07:43:28.066Z,1010.05
2023-03-22T07:44:28.233Z,1010.02
2023-03-22T07:45:28.693Z,1010.03
2023-03-22T07:46:28.601Z,1010.00
2023-03-22T07:47:40.397Z,1010.01
2023-03-22T07:48:29.964Z,1009.99
2023-03-22T07:49:29.087Z,1009.97
2023-03-22T07:50:29.349Z,1009.99
2023-03-22T07:51:29.487Z,1009.99
2023-03-22T07:52:29.650Z,1009.95
2023-03-22T07:53:29.803Z,1009.95
2023-03-22T07:54:34.206Z,1009.94
2023-03-22T07:55:30.169Z,1009.90
2023-03-22T07:56:30.369Z,1009.90
2023-03-22T07:57:30.524Z,1009.88
2023-03-22T07:58:30.699Z,1009.83
2023-03-22T07:59:30.897Z,1009.82
2023-03-22T08:00:31.063Z,1009.82
2023-03-22T08:01:31.240Z,1009.84
2023-03-22T08:02:31.427Z,1009.84
2023-03-22T08:03:31.660Z,1009.78
2023-03-22T08:04:31.810Z,1009.82
2023-03-22T08:05:31.958Z,1009.78
2023-03-22T08:06:32.135Z,1009.79
2023-03-22T08:07:32.338Z,1009.82
2023-03-22T08:08:32.509Z,1009.79
2023-03-22T08:09:32.647Z,1009.87
2023-03-22T08:10:32.846Z,1009.86
2023-03-22T08:11:33.003Z,1009.84
2023-03-22T08:12:33.202Z,1009.78
2023-03-22T08:13:33.369Z,1009.79
2023-03-22T08:14:36.326Z,1009.83
2023-03-22T08:15:33.727Z,1009.85
2023-03-22T08:16:33.999Z,1009.88
2023-03-22T08:17:34.061Z,1009.88
2023-03-22T08:18:34.242Z,1009.85
2023-03-22T08:19:34.415Z,1009.91
2023-03-22T08:20:34.595Z,1009.78
2023-03-22T08:21:34.789Z,1009.75
2023-03-22T08:22:34.959Z,1009.75
2023-03-22T08:23:41.878Z,1009.82
2023-03-22T08:24:36.268Z,1009.80
2023-03-22T08:25:35.580Z,1009.77
2023-03-22T08:26:35.711Z,1009.79
2023-03-22T08:27:35.818Z,1009.75
2023-03-22T08:28:35.997Z,1009.77
2023-03-22T08:29:36.221Z,1009.73
2023-03-22T08:30:36.354Z,1009.70
2023-03-22T08:31:36.575Z,1009.67
2023-03-22T08:32:36.680Z,1009.70
2023-03-22T08:33:36.868Z,1009.68
2023-03-22T08:34:37.018Z,1009.67
2023-03-22T08:35:37.239Z,1009.61
2023-03-22T08:36:37.410Z,1009.67
2023-03-22T08:37:37.545Z,1009.61
2023-03-22T08:38:37.703Z,1009.57
2023-03-22T08:39:37.874Z,1009.57
2023-03-22T08:40:38.140Z,1009.54
2023-03-22T08:41:38.248Z,1009.61
2023-03-22T08:42:38.423Z,1009.54
2023-03-22T08:43:38.632Z,1009.57
2023-03-22T08:44:38.774Z,1009.52
2023-03-22T08:45:39.356Z,1009.58
2023-03-22T08:46:39.112Z,1009.56
2023-03-22T08:47:39.311Z,1009.56
2023-03-22T08:48:39.688Z,1009.47
2023-03-22T08:49:39.654Z,1009.46
2023-03-22T08:50:39.796Z,1009.40
2023-03-22T08:51:39.958Z,1009.38
2023-03-22T08:52:40.155Z,1009.38
2023-03-22T08:53:40.304Z,1009.48
2023-03-22T08:54:40.482Z,1009.40
2023-03-22T08:55:40.880Z,1009.37
2023-03-22T08:56:40.858Z,1009.30
2023-03-22T08:57:41.048Z,1009.33
2023-03-22T08:58:41.221Z,1009.28
2023-03-22T08:59:41.393Z,1009.30
2023-03-22T09:00:48.484Z,1009.19
2023-03-22T09:01:42.852Z,1009.23
2023-03-22T09:02:41.906Z,1009.22
2023-03-22T09:03:42.066Z,1009.20
2023-03-22T09:04:42.290Z,1009.20
2023-03-22T09:05:42.389Z,1009.15
2023-03-22T09:06:42.568Z,1009.13
2023-03-22T09:07:42.740Z,1009.09
2023-03-22T09:08:42.917Z,1009.08
2023-03-22T09:09:43.074Z,1009.06
2023-03-22T09:10:43.241Z,1009.11
2023-03-22T09:11:43.420Z,1009.00
2023-03-22T09:12:43.611Z,1008.96
2023-03-22T09:13:43.749Z,1009.05
2023-03-22T09:14:43.910Z,1009.04
2023-03-22T09:15:44.225Z,1008.97
2023-03-22T09:16:44.267Z,1008.93
2023-03-22T09:17:44.433Z,1008.93
2023-03-22T09:18:44.596Z,1009.00
2023-03-22T09:19:44.782Z,1008.97
2023-03-22T09:20:44.959Z,1008.89
2023-03-22T09:21:45.138Z,1008.92
2023-03-22T09:22:45.279Z,1008.83
2023-03-22T09:23:45.441Z,1008.84
2023-03-22T09:24:45.640Z,1008.93
2023-03-22T09:25:45.795Z,1008.85
2023-03-22T09:26:45.984Z,1008.88
2023-03-22T09:27:46.134Z,1008.82
2023-03-22T09:28:46.312Z,1008.83
2023-03-22T09:29:46.481Z,1008.82
2023-03-22T09:30:46.690Z,1008.88
2023-03-22T09:31:46.808Z,1008.82
2023-03-22T09:32:46.981Z,1008.87
2023-03-22T09:33:47.178Z,1008.85
2023-03-22T09:34:47.336Z,1008.86
2023-03-22T09:35:47.524Z,1008.83
2023-03-22T09:36:47.690Z,1008.85
2023-03-22T09:37:47.858Z,1008.86
2023-03-22T09:38:48.049Z,1008.90
2023-03-22T09:39:48.212Z,1008.86
2023-03-22T09:40:48.377Z,1008.86
2023-03-22T09:41:48.572Z,1008.85
2023-03-22T09:42:48.728Z,1008.87
2023-03-22T09:43:48.930Z,1008.86
2023-03-22T09:44:49.079Z,1008.78
2023-03-22T09:45:49.245Z,1008.75
2023-03-22T09:46:49.426Z,1008.79
2023-03-22T09:47:49.658Z,1008.72
2023-03-22T09:48:49.795Z,1008.80
2023-03-22T09:49:53.688Z,1008.80
2023-03-22T09:50:50.126Z,1008.68
2023-03-22T09:51:50.355Z,1008.73
2023-03-22T09:52:50.473Z,1008.73
2023-03-22T09:53:50.672Z,1008.68
2023-03-22T09:54:52.902Z,1008.75
2023-03-22T09:55:50.967Z,1008.73
2023-03-22T09:56:51.138Z,1008.75
2023-03-22T09:57:51.310Z,1008.67
2023-03-22T09:58:51.828Z,1008.62
2023-03-22T09:59:51.684Z,1008.71
2023-03-22T10:00:51.938Z,1008.74
2023-03-22T10:01:52.382Z,1008.70
2023-03-22T10:02:52.312Z,1008.68
2023-03-22T10:03:52.507Z,1008.67
2023-03-22T10:04:52.559Z,1008.66
2023-03-22T10:05:52.749Z,1008.61
2023-03-22T10:06:52.910Z,1008.53
2023-03-22T10:07:53.106Z,1008.53
2023-03-22T10:08:53.301Z,1008.59
2023-03-22T10:09:53.420Z,1008.61
2023-03-22T10:10:53.600Z,1008.54
2023-03-22T10:11:53.764Z,1008.49
2023-03-22T10:12:53.932Z,1008.53
2023-03-22T10:13:54.111Z,1008.41
2023-03-22T10:14:54.277Z,1008.45
2023-03-22T10:15:54.458Z,1008.55
2023-03-22T10:16:56.510Z,1008.55
2023-03-22T10:17:54.777Z,1008.52
2023-03-22T10:18:54.956Z,1008.51
2023-03-22T10:19:55.161Z,1008.49
2023-03-22T10:20:55.328Z,1008.44
2023-03-22T10:21:55.503Z,1008.45
2023-03-22T10:22:55.671Z,1008.41
2023-03-22T10:23:55.846Z,1008.40
2023-03-22T10:24:56.288Z,1008.34
2023-03-22T10:25:56.186Z,1008.34
2023-03-22T10:26:56.380Z,1008.27
2023-03-22T10:27:57.930Z,1008.24
2023-03-22T10:28:56.708Z,1008.24
2023-03-22T10:29:56.926Z,1008.33
2023-03-22T10:30:57.063Z,1008.25
2023-03-22T10:31:57.297Z,1008.20
2023-03-22T10:32:58.336Z,1008.26
2023-03-22T10:33:57.571Z,1008.16
2023-03-22T10:34:57.759Z,1008.15
2023-03-22T10:35:57.980Z,1008.14
2023-03-22T10:36:58.100Z,1008.14
2023-03-22T10:37:58.306Z,1008.13
2023-03-22T10:38:58.431Z,1008.12
2023-03-22T10:39:58.607Z,1008.06
2023-03-22T10:40:58.769Z,1008.02
2023-03-22T10:41:58.944Z,1007.95
2023-03-22T10:42:59.107Z,1007.96
2023-03-22T10:43:59.276Z,1008.07
2023-03-22T10:44:59.443Z,1008.00
2023-03-22T10:45:59.622Z,1007.96
2023-03-22T10:46:59.834Z,1008.03
2023-03-22T10:48:00.040Z,1008.05
2023-03-22T10:49:00.240Z,1007.92
2023-03-22T10:50:00.308Z,1007.99
2023-03-22T10:51:00.478Z,1007.96
2023-03-22T10:52:00.641Z,1007.89
2023-03-22T10:53:00.831Z,1007.87
2023-03-22T10:54:01.001Z,1007.87
2023-03-22T10:55:04.314Z,1007.82
2023-03-22T10:56:01.355Z,1007.86
2023-03-22T10:57:01.572Z,1007.84
2023-03-22T10:58:01.703Z,1007.84
2023-03-22T10:59:01.894Z,1007.93
2023-03-22T11:00:02.123Z,1007.83
2023-03-22T11:01:02.319Z,1007.89
2023-03-22T11:02:02.543Z,1007.91
2023-03-22T11:03:02.686Z,1007.83
2023-03-22T11:04:02.787Z,1007.91
2023-03-22T11:05:02.951Z,1007.94
2023-03-22T11:06:03.110Z,1007.95
2023-03-22T11:07:03.286Z,1007.92
2023-03-22T11:08:03.474Z,1007.85
2023-03-22T11:09:03.640Z,1008.05
2023-03-22T11:10:03.805Z,1007.87
2023-03-22T11:11:03.983Z,1007.83
2023-03-22T11:12:04.162Z,1007.83
2023-03-22T11:13:04.351Z,1007.84
2023-03-22T11:14:04.481Z,1007.95
2023-03-22T11:15:04.645Z,1007.87
2023-03-22T11:16:04.842Z,1007.80
2023-03-22T11:17:05.016Z,1007.81
2023-03-22T11:18:05.151Z,1007.85
2023-03-22T11:19:05.304Z,1007.91
2023-03-22T11:20:07.263Z,1008.01
2023-03-22T11:21:05.635Z,1007.94
2023-03-22T11:22:05.822Z,1008.05
2023-03-22T11:23:05.959Z,1007.89
2023-03-22T11:24:06.160Z,1007.96
2023-03-22T11:25:06.305Z,1007.92
2023-03-22T11:26:06.464Z,1007.96
2023-03-22T11:27:06.656Z,1007.92
2023-03-22T11:28:06.804Z,1007.92
2023-03-22T11:29:06.972Z,1007.88
2023-03-22T11:30:07.146Z,1007.86
2023-03-22T11:31:07.319Z,1007.87
2023-03-22T11:32:07.546Z,1007.81
2023-03-22T11:33:07.711Z,1007.76
2023-03-22T11:34:07.806Z,1007.77
2023-03-22T11:35:07.991Z,1007.79
2023-03-22T11:36:08.212Z,1007.79
2023-03-22T11:37:08.376Z,1007.81
2023-03-22T11:38:08.480Z,1007.82
2023-03-22T11:39:08.648Z,1007.76
2023-03-22T11:40:08.810Z,1007.71
2023-03-22T11:41:08.979Z,1007.83
2023-03-22T11:42:09.190Z,1007.78
2023-03-22T11:43:09.358Z,1007.70
2023-03-22T11:44:09.515Z,1007.66
2023-03-22T11:45:09.687Z,1007.74
2023-03-22T11:46:09.894Z,1007.62
2023-03-22T11:47:10.033Z,1007.62
2023-03-22T11:48:10.207Z,1007.65
2023-03-22T11:49:10.428Z,1007.70
2023-03-22T11:50:10.796Z,1007.59
2023-03-22T11:51:10.721Z,1007.52
2023-03-22T11:52:10.885Z,1007.61
2023-03-22T11:53:11.057Z,1007.45
2023-03-22T11:54:11.219Z,1007.45
2023-03-22T11:55:11.397Z,1007.47
2023-03-22T11:56:11.580Z,1007.58
2023-03-22T11:57:11.739Z,1007.46
2023-03-22T11:58:11.908Z,1007.47
2023-03-22T11:59:12.091Z,1007.45
2023-03-22T12:00:12.273Z,1007.41
2023-03-22T12:01:12.465Z,1007.38
2023-03-22T12:02:12.648Z,1007.47
2023-03-22T12:03:12.938Z,1007.48
2023-03-22T12:04:12.997Z,1007.48
2023-03-22T12:05:13.259Z,1007.61
2023-03-22T12:06:13.405Z,1007.46
2023-03-22T12:07:13.521Z,1007.42